createdAt,value
2022-11-28T00:01:36.670Z,93.64
2022-11-28T00:04:05.987Z,93.43
2022-11-28T00:06:32.786Z,93.75
2022-11-28T00:09:00.300Z,93.99
2022-11-28T00:11:27.334Z,93.99
2022-11-28T00:13:54.968Z,93.78
2022-11-28T00:16:22.885Z,93.77
2022-11-28T00:18:51.106Z,93.86
2022-11-28T00:21:18.692Z,93.84
2022-11-28T00:23:47.181Z,94.07
2022-11-28T00:26:21.669Z,93.99
2022-11-28T00:28:48.767Z,94.20
2022-11-28T00:31:20.930Z,94.33
2022-11-28T00:33:48.256Z,94.10
2022-11-28T00:36:15.097Z,94.00
2022-11-28T00:38:41.765Z,94.28
2022-11-28T00:41:14.452Z,94.11
2022-11-28T00:43:42.016Z,94.14
2022-11-28T00:46:09.722Z,94.11
2022-11-28T00:48:37.132Z,94.12
2022-11-28T00:51:11.256Z,94.13
2022-11-28T00:53:40.448Z,94.11
2022-11-28T00:56:08.816Z,94.14
2022-11-28T00:58:36.627Z,94.05
2022-11-28T01:01:22.613Z,94.00
2022-11-28T01:03:50.858Z,93.96
2022-11-28T01:06:23.431Z,93.87
2022-11-28T01:08:51.064Z,94.07
2022-11-28T01:11:18.810Z,94.16
2022-11-28T01:13:45.980Z,93.99
2022-11-28T01:16:12.936Z,94.16
2022-11-28T01:18:39.475Z,94.19
2022-11-28T01:21:07.864Z,93.96
2022-11-28T01:23:35.369Z,94.28
2022-11-28T01:26:02.823Z,93.98
2022-11-28T01:28:29.560Z,94.13
2022-11-28T01:30:56.475Z,94.44
2022-11-28T01:33:23.072Z,94.23
2022-11-28T01:35:57.473Z,94.02
2022-11-28T01:38:24.450Z,93.96
2022-11-28T01:40:51.785Z,93.85
2022-11-28T01:43:18.940Z,93.85
2022-11-28T01:45:45.815Z,94.11
2022-11-28T01:48:16.361Z,93.86
2022-11-28T01:50:47.755Z,93.71
2022-11-28T01:53:14.687Z,93.59
2022-11-28T01:55:48.647Z,93.59
2022-11-28T01:58:15.687Z,93.83
2022-11-28T02:00:42.247Z,93.99
2022-11-28T02:03:14.145Z,93.87
2022-11-28T02:05:41.392Z,94.01
2022-11-28T02:08:09.131Z,93.78
2022-11-28T02:10:57.697Z,93.92
2022-11-28T02:13:40.795Z,93.85
2022-11-28T02:16:19.096Z,93.94
2022-11-28T02:18:51.743Z,94.20
2022-11-28T02:21:32.320Z,93.56
2022-11-28T02:24:33.185Z,93.73
2022-11-28T02:27:44.394Z,93.85
2022-11-28T02:30:24.140Z,93.78
2022-11-28T02:33:14.175Z,93.79
2022-11-28T02:36:15.193Z,93.51
2022-11-28T02:39:02.465Z,93.85
2022-11-28T02:41:35.016Z,93.87
2022-11-28T02:44:18.528Z,94.00
2022-11-28T02:47:09.580Z,94.23
2022-11-28T02:49:43.943Z,94.23
2022-11-28T02:52:16.578Z,94.11
2022-11-28T02:54:44.359Z,94.25
2022-11-28T02:57:11.223Z,94.23
2022-11-28T02:59:37.771Z,94.41
2022-11-28T03:02:10.867Z,94.68
2022-11-28T03:04:44.868Z,94.60
2022-11-28T03:07:22.003Z,94.50
2022-11-28T03:10:13.064Z,94.53
2022-11-28T03:13:07.537Z,94.62
2022-11-28T03:15:52.738Z,94.77
2022-11-28T03:18:27.051Z,94.91
2022-11-28T03:21:01.423Z,95.07
2022-11-28T03:23:42.797Z,95.02
2022-11-28T03:26:15.424Z,95.24
2022-11-28T03:29:03.209Z,95.18
2022-11-28T03:31:36.721Z,94.96
2022-11-28T03:34:05.848Z,94.98
2022-11-28T03:36:41.089Z,94.95
2022-11-28T03:39:22.385Z,94.47
2022-11-28T03:41:58.037Z,94.19
2022-11-28T03:44:31.629Z,94.03
2022-11-28T03:47:02.033Z,94.06
2022-11-28T03:49:37.302Z,93.95
2022-11-28T03:52:06.679Z,93.91
2022-11-28T03:54:39.503Z,94.23
2022-11-28T03:57:16.935Z,94.32
2022-11-28T03:59:49.854Z,94.35
2022-11-28T04:02:28.392Z,94.24
2022-11-28T04:05:13.075Z,94.35
2022-11-28T04:08:04.222Z,94.78
2022-11-28T04:10:40.773Z,94.81
2022-11-28T04:13:29.192Z,94.96
2022-11-28T04:16:43.919Z,94.88
2022-11-28T04:19:27.615Z,95.35
2022-11-28T04:22:01.786Z,95.16
2022-11-28T04:24:42.045Z,95.45
2022-11-28T04:27:13.908Z,95.44
2022-11-28T04:29:46.106Z,95.35
2022-11-28T04:32:15.202Z,94.99
2022-11-28T04:34:45.407Z,95.19
2022-11-28T04:37:14.868Z,95.39
2022-11-28T04:39:44.819Z,95.22
2022-11-28T04:42:16.320Z,95.05
2022-11-28T04:44:58.630Z,95.05
2022-11-28T04:47:25.936Z,95.17
2022-11-28T04:49:54.018Z,94.68
2022-11-28T04:52:29.295Z,94.36
2022-11-28T04:55:03.402Z,94.06
2022-11-28T04:57:43.630Z,93.96
2022-11-28T05:00:16.523Z,93.76
2022-11-28T05:02:45.197Z,93.45
2022-11-28T05:05:16.334Z,93.63
2022-11-28T05:07:42.977Z,93.52
2022-11-28T05:10:11.056Z,93.37
2022-11-28T05:12:37.823Z,93.36
2022-11-28T05:15:05.349Z,93.07
2022-11-28T05:17:31.997Z,93.18
2022-11-28T05:19:58.785Z,92.87
2022-11-28T05:22:25.353Z,92.83
2022-11-28T05:24:52.298Z,92.85
2022-11-28T05:27:18.886Z,92.59
2022-11-28T05:29:51.958Z,92.42
2022-11-28T05:32:18.933Z,92.41
2022-11-28T05:34:45.566Z,92.04
2022-11-28T05:37:12.352Z,92.42
2022-11-28T05:39:39.189Z,91.91
2022-11-28T05:42:06.098Z,92.07
2022-11-28T05:44:32.672Z,91.92
2022-11-28T05:46:59.232Z,91.76
2022-11-28T05:49:26.312Z,91.62
2022-11-28T05:51:52.885Z,91.73
2022-11-28T05:54:19.471Z,91.68
2022-11-28T05:56:46.378Z,91.74
2022-11-28T05:59:13.833Z,91.91
2022-11-28T06:01:40.613Z,91.70
2022-11-28T06:04:07.304Z,91.48
2022-11-28T06:06:35.583Z,91.36
2022-11-28T06:09:02.615Z,91.56
2022-11-28T06:11:30.881Z,91.41
2022-11-28T06:13:57.912Z,91.56
2022-11-28T06:16:28.863Z,91.70
2022-11-28T06:18:57.836Z,91.91
2022-11-28T06:21:25.610Z,92.22
2022-11-28T06:23:52.253Z,92.19
2022-11-28T06:26:21.500Z,92.35
2022-11-28T06:28:48.774Z,92.33
2022-11-28T06:31:19.582Z,92.57
2022-11-28T06:33:46.639Z,92.53
2022-11-28T06:36:14.353Z,92.41
2022-11-28T06:38:41.278Z,92.59
2022-11-28T06:41:10.832Z,92.60
2022-11-28T06:43:37.839Z,92.59
2022-11-28T06:46:04.592Z,92.77
2022-11-28T06:48:32.220Z,92.72
2022-11-28T06:51:03.669Z,92.61
2022-11-28T06:53:31.742Z,92.75
2022-11-28T06:56:03.597Z,92.72
2022-11-28T06:58:30.407Z,92.93
2022-11-28T07:00:57.205Z,93.07
2022-11-28T07:03:23.957Z,93.38
2022-11-28T07:05:50.513Z,93.29
2022-11-28T07:08:17.172Z,93.64
2022-11-28T07:10:43.741Z,93.62
2022-11-28T07:13:10.255Z,93.59
2022-11-28T07:15:36.914Z,93.68
2022-11-28T07:18:04.367Z,93.68
2022-11-28T07:20:30.920Z,93.44
2022-11-28T07:22:57.840Z,93.04
2022-11-28T07:25:24.397Z,92.89
2022-11-28T07:27:50.949Z,92.92
2022-11-28T07:30:17.745Z,92.66
2022-11-28T07:32:44.336Z,92.64
2022-11-28T07:35:12.124Z,92.49
2022-11-28T07:37:38.741Z,92.31
2022-11-28T07:40:06.273Z,92.15
2022-11-28T07:42:32.856Z,92.11
2022-11-28T07:44:59.382Z,92.20
2022-11-28T07:47:25.958Z,91.89
2022-11-28T07:49:52.742Z,91.91
2022-11-28T07:52:19.395Z,91.92
2022-11-28T07:54:45.995Z,91.94
2022-11-28T07:57:13.436Z,91.77
2022-11-28T07:59:40.503Z,91.86
2022-11-28T08:02:07.390Z,91.49
2022-11-28T08:04:34.682Z,91.27
2022-11-28T08:07:01.301Z,91.21
2022-11-28T08:09:28.142Z,91.27
2022-11-28T08:11:54.728Z,91.19
2022-11-28T08:14:21.298Z,91.07
2022-11-28T08:16:49.439Z,91.04
2022-11-28T08:19:16.284Z,91.33
2022-11-28T08:21:42.978Z,91.32
2022-11-28T08:24:11.091Z,91.58
2022-11-28T08:26:38.195Z,91.61
2022-11-28T08:29:04.780Z,91.28
2022-11-28T08:31:34.633Z,91.56
2022-11-28T08:34:03.285Z,91.01
2022-11-28T08:36:30.008Z,91.16
2022-11-28T08:39:16.663Z,91.39
2022-11-28T08:41:43.789Z,91.46
2022-11-28T08:44:10.398Z,91.36
2022-11-28T08:46:37.115Z,91.08
2022-11-28T08:49:04.675Z,91.29
2022-11-28T08:51:31.744Z,91.03
2022-11-28T08:53:59.842Z,90.84
2022-11-28T08:56:27.109Z,90.54
2022-11-28T08:58:54.324Z,90.17
2022-11-28T09:01:22.996Z,90.20
2022-11-28T09:03:50.299Z,90.22
2022-11-28T09:06:17.997Z,90.10
2022-11-28T09:08:45.061Z,89.90
2022-11-28T09:11:14.676Z,89.73
2022-11-28T09:13:41.872Z,89.45
2022-11-28T09:16:09.415Z,89.37
2022-11-28T09:18:37.419Z,89.34
2022-11-28T09:21:09.232Z,89.28
2022-11-28T09:23:37.510Z,89.20
2022-11-28T09:26:13.011Z,89.20
2022-11-28T09:28:40.500Z,88.35
2022-11-28T09:31:07.983Z,87.61
2022-11-28T09:33:35.773Z,87.59
2022-11-28T09:36:10.933Z,87.88
2022-11-28T09:38:38.457Z,87.44
2022-11-28T09:41:29.036Z,87.26
2022-11-28T09:44:01.086Z,87.43
2022-11-28T09:46:32.794Z,87.11
2022-11-28T09:49:03.057Z,87.44
2022-11-28T09:51:38.763Z,87.32
2022-11-28T09:54:19.470Z,87.24
2022-11-28T09:56:48.866Z,87.35
2022-11-28T09:59:27.250Z,87.24
2022-11-28T10:02:42.204Z,87.01
2022-11-28T10:05:08.804Z,87.00
2022-11-28T10:08:00.557Z,86.88
2022-11-28T10:11:13.814Z,87.24
2022-11-28T10:14:15.750Z,87.35
2022-11-28T10:17:05.541Z,86.55
2022-11-28T10:19:54.642Z,86.36
2022-11-28T10:22:37.552Z,86.59
2022-11-28T10:25:12.522Z,86.39
2022-11-28T10:27:40.514Z,86.58
2022-11-28T10:30:36.852Z,86.85
2022-11-28T10:33:09.267Z,86.34
2022-11-28T10:35:44.253Z,86.74
2022-11-28T10:38:15.804Z,86.99
2022-11-28T10:40:57.906Z,86.16
2022-11-28T10:43:34.245Z,86.43
2022-11-28T10:46:42.070Z,85.98
2022-11-28T10:49:33.326Z,85.82
2022-11-28T10:52:19.444Z,86.20
2022-11-28T10:55:03.875Z,86.07
2022-11-28T10:58:14.873Z,85.32
2022-11-28T11:00:45.270Z,85.58
2022-11-28T11:03:15.321Z,85.22
2022-11-28T11:05:42.451Z,85.38
2022-11-28T11:08:09.027Z,84.90
2022-11-28T11:10:41.124Z,85.22
2022-11-28T11:13:28.508Z,84.96
2022-11-28T11:16:11.334Z,84.45
2022-11-28T11:18:52.087Z,84.91
2022-11-28T11:21:25.902Z,84.69
2022-11-28T11:24:18.224Z,84.38
2022-11-28T11:26:48.471Z,84.37
2022-11-28T11:29:35.558Z,84.95
2022-11-28T11:32:06.235Z,84.27
2022-11-28T11:34:42.407Z,84.87
2022-11-28T11:37:36.772Z,84.11
2022-11-28T11:40:18.394Z,83.79
2022-11-28T11:42:53.209Z,84.11
2022-11-28T11:45:30.147Z,84.12
2022-11-28T11:47:57.017Z,83.82
2022-11-28T11:50:27.659Z,83.65
2022-11-28T11:53:07.600Z,83.47
2022-11-28T11:55:52.741Z,83.94
2022-11-28T11:58:23.460Z,83.54
2022-11-28T12:00:52.557Z,83.62
2022-11-28T12:03:39.501Z,83.54
2022-11-28T12:06:20.595Z,83.71
2022-11-28T12:09:02.374Z,83.40
2022-11-28T12:11:59.325Z,82.64
2022-11-28T12:14:32.855Z,83.43
2022-11-28T12:17:48.418Z,83.26
2022-11-28T12:20:43.974Z,83.18
2022-11-28T12:23:17.355Z,83.13
2022-11-28T12:25:52.445Z,82.73
2022-11-28T12:28:42.811Z,83.30
2022-11-28T12:31:41.293Z,84.14
2022-11-28T12:34:16.877Z,84.10
2022-11-28T12:36:46.181Z,84.03
2022-11-28T12:39:21.759Z,84.34
2022-11-28T12:42:10.233Z,84.68
2022-11-28T12:44:54.980Z,84.73
2022-11-28T12:47:42.051Z,85.36
2022-11-28T12:50:08.790Z,84.89
2022-11-28T12:52:47.335Z,85.11
2022-11-28T12:55:13.837Z,84.83
2022-11-28T12:57:46.082Z,84.54
2022-11-28T13:00:22.399Z,84.47
2022-11-28T13:03:16.656Z,84.83
2022-11-28T13:05:58.482Z,84.55
2022-11-28T13:08:50.354Z,84.46
2022-11-28T13:11:30.085Z,84.77
2022-11-28T13:14:14.762Z,84.85
2022-11-28T13:16:45.159Z,84.64
2022-11-28T13:19:26.911Z,84.85
2022-11-28T13:22:23.464Z,84.85
2022-11-28T13:25:34.575Z,84.81
2022-11-28T13:28:05.120Z,85.35
2022-11-28T13:30:41.540Z,85.38
2022-11-28T13:33:31.281Z,85.93
2022-11-28T13:35:59.943Z,85.65
2022-11-28T13:39:11.705Z,85.78
2022-11-28T13:42:36.132Z,85.74
2022-11-28T13:44:46.663Z,85.93
2022-11-28T13:47:27.896Z,85.91
2022-11-28T13:50:22.820Z,86.48
2022-11-28T13:53:04.098Z,86.89
2022-11-28T13:55:51.531Z,86.88
2022-11-28T13:58:28.522Z,86.82
2022-11-28T14:01:01.457Z,87.11
2022-11-28T14:03:31.086Z,87.07
2022-11-28T14:06:00.248Z,87.32
2022-11-28T14:08:35.908Z,87.45
2022-11-28T14:11:11.963Z,87.22
2022-11-28T14:14:24.105Z,86.99
2022-11-28T14:17:00.434Z,86.67
2022-11-28T14:19:53.702Z,86.81
2022-11-28T14:22:47.459Z,86.83
2022-11-28T14:25:41.008Z,86.97
2022-11-28T14:28:36.739Z,87.18
2022-11-28T14:31:25.207Z,87.43
2022-11-28T14:34:01.642Z,87.85
2022-11-28T14:36:33.952Z,88.01
2022-11-28T14:39:36.106Z,88.06
2022-11-28T14:42:02.782Z,88.31
2022-11-28T14:44:48.106Z,88.39
2022-11-28T14:47:39.611Z,88.44
2022-11-28T14:50:09.335Z,88.36
2022-11-28T14:52:41.492Z,88.31
2022-11-28T14:55:08.305Z,88.03
2022-11-28T14:57:37.464Z,88.12
2022-11-28T15:00:15.263Z,87.99
2022-11-28T15:02:48.698Z,88.22
2022-11-28T15:05:30.141Z,88.33
2022-11-28T15:08:22.085Z,88.54
2022-11-28T15:11:16.056Z,88.29
2022-11-28T15:13:51.611Z,88.45
2022-11-28T15:16:20.145Z,88.62
2022-11-28T15:18:53.948Z,88.52
2022-11-28T15:21:22.393Z,89.04
2022-11-28T15:23:50.025Z,89.20
2022-11-28T15:26:34.649Z,88.88
2022-11-28T15:29:18.020Z,89.08
2022-11-28T15:31:46.776Z,88.92
2022-11-28T15:34:24.282Z,89.19
2022-11-28T15:36:55.851Z,89.12
2022-11-28T15:39:45.281Z,89.21
2022-11-28T15:42:33.218Z,89.34
2022-11-28T15:45:05.433Z,89.22
2022-11-28T15:47:32.449Z,89.32
2022-11-28T15:50:16.916Z,89.55
2022-11-28T15:53:15.894Z,89.49
2022-11-28T15:55:43.563Z,89.54
2022-11-28T15:58:28.617Z,89.41
2022-11-28T16:01:18.461Z,89.66
2022-11-28T16:03:48.411Z,89.57
2022-11-28T16:06:16.537Z,89.87
2022-11-28T16:09:05.165Z,89.83
2022-11-28T16:11:34.101Z,89.47
2022-11-28T16:14:09.888Z,89.83
2022-11-28T16:16:38.952Z,89.79
2022-11-28T16:19:25.294Z,90.29
2022-11-28T16:22:04.339Z,90.06
2022-11-28T16:24:38.926Z,90.29
2022-11-28T16:27:06.523Z,90.04
2022-11-28T16:29:35.377Z,90.06
2022-11-28T16:32:26.432Z,90.56
2022-11-28T16:34:55.419Z,90.41
2022-11-28T16:37:29.496Z,90.39
2022-11-28T16:40:22.967Z,90.58
2022-11-28T16:42:53.624Z,90.18
2022-11-28T16:45:29.734Z,90.16
2022-11-28T16:48:13.570Z,90.26
2022-11-28T16:51:10.956Z,90.43
2022-11-28T16:54:26.326Z,90.42
2022-11-28T16:56:57.468Z,90.43
2022-11-28T16:59:24.716Z,90.44
2022-11-28T17:01:54.486Z,90.36
2022-11-28T17:04:28.273Z,90.40
2022-11-28T17:06:57.760Z,90.42
2022-11-28T17:09:24.299Z,90.53
2022-11-28T17:11:58.789Z,90.45
2022-11-28T17:14:25.526Z,90.70
2022-11-28T17:16:52.153Z,90.50
2022-11-28T17:19:18.780Z,90.46
2022-11-28T17:21:48.682Z,90.66
2022-11-28T17:24:24.283Z,90.73
2022-11-28T17:26:52.744Z,90.58
2022-11-28T17:29:19.898Z,90.51
2022-11-28T17:31:47.968Z,90.71
2022-11-28T17:34:20.376Z,90.60
2022-11-28T17:36:47.729Z,90.67
2022-11-28T17:39:15.365Z,90.62
2022-11-28T17:41:42.479Z,91.00
2022-11-28T17:44:22.157Z,90.85
2022-11-28T17:46:50.538Z,90.96
2022-11-28T17:49:18.071Z,91.04
2022-11-28T17:51:44.993Z,90.80
2022-11-28T17:54:16.671Z,90.68
2022-11-28T17:56:48.613Z,90.82
2022-11-28T17:59:22.193Z,91.34
2022-11-28T18:01:49.278Z,90.95
2022-11-28T18:04:16.705Z,90.95
2022-11-28T18:06:44.969Z,91.16
2022-11-28T18:09:12.801Z,91.00
2022-11-28T18:11:40.885Z,91.06
2022-11-28T18:14:07.511Z,91.00
2022-11-28T18:16:36.636Z,91.06
2022-11-28T18:19:04.299Z,91.03
2022-11-28T18:21:31.824Z,91.07
2022-11-28T18:23:58.486Z,91.44
2022-11-28T18:26:26.159Z,91.24
2022-11-28T18:28:53.592Z,91.52
2022-11-28T18:31:25.570Z,91.90
2022-11-28T18:33:57.356Z,91.65
2022-11-28T18:36:28.458Z,91.07
2022-11-28T18:39:00.199Z,90.91
2022-11-28T18:41:27.743Z,91.18
2022-11-28T18:43:56.223Z,91.16
2022-11-28T18:46:23.506Z,91.56
2022-11-28T18:48:50.228Z,91.98
2022-11-28T18:51:21.976Z,91.58
2022-11-28T18:53:49.821Z,91.47
2022-11-28T18:56:17.573Z,91.20
2022-11-28T18:58:46.621Z,91.44
2022-11-28T19:01:19.227Z,91.42
2022-11-28T19:03:50.475Z,91.20
2022-11-28T19:06:17.334Z,91.52
2022-11-28T19:08:44.302Z,91.74
2022-11-28T19:11:14.421Z,91.21
2022-11-28T19:13:43.073Z,91.33
2022-11-28T19:16:15.796Z,92.11
2022-11-28T19:18:43.493Z,91.63
2022-11-28T19:21:13.256Z,91.67
2022-11-28T19:23:40.566Z,91.98
2022-11-28T19:26:09.686Z,91.83
2022-11-28T19:28:37.476Z,91.52
2022-11-28T19:31:15.577Z,91.98
2022-11-28T19:33:43.623Z,92.13
2022-11-28T19:36:13.061Z,91.79
2022-11-28T19:38:40.458Z,91.70
2022-11-28T19:41:15.746Z,91.55
2022-11-28T19:43:42.744Z,91.90
2022-11-28T19:46:09.757Z,91.48
2022-11-28T19:48:37.653Z,91.79
2022-11-28T19:51:04.648Z,91.58
2022-11-28T19:53:33.404Z,91.54
2022-11-28T19:56:09.012Z,91.74
2022-11-28T19:58:36.007Z,91.78
2022-11-28T20:01:06.905Z,91.78
2022-11-28T20:03:35.000Z,91.50
2022-11-28T20:06:02.214Z,92.19
2022-11-28T20:08:28.810Z,92.37
2022-11-28T20:10:55.521Z,92.23
2022-11-28T20:13:22.122Z,92.57
2022-11-28T20:15:48.680Z,92.51
2022-11-28T20:18:15.144Z,92.01
2022-11-28T20:20:41.782Z,92.21
2022-11-28T20:23:08.295Z,91.62
2022-11-28T20:25:35.074Z,91.73
2022-11-28T20:28:01.672Z,92.08
2022-11-28T20:30:28.354Z,92.14
2022-11-28T20:32:55.336Z,92.05
2022-11-28T20:35:24.379Z,91.92
2022-11-28T20:37:51.056Z,91.84
2022-11-28T20:40:17.712Z,92.02
2022-11-28T20:42:45.283Z,91.91
2022-11-28T20:45:11.898Z,91.99
2022-11-28T20:47:38.499Z,92.28
2022-11-28T20:50:06.733Z,91.80
2022-11-28T20:52:33.364Z,92.06
2022-11-28T20:55:00.009Z,92.15
2022-11-28T20:57:27.096Z,92.40
2022-11-28T20:59:56.711Z,92.32
2022-11-28T21:02:23.841Z,92.09
2022-11-28T21:04:50.549Z,92.17
2022-11-28T21:07:18.411Z,92.48
2022-11-28T21:09:45.270Z,92.56
2022-11-28T21:12:14.428Z,92.20
2022-11-28T21:14:43.273Z,92.21
2022-11-28T21:17:09.859Z,92.01
2022-11-28T21:19:36.481Z,92.27
2022-11-28T21:22:03.195Z,92.27
2022-11-28T21:24:29.839Z,92.32
2022-11-28T21:26:56.370Z,92.41
2022-11-28T21:29:24.436Z,92.44
2022-11-28T21:31:51.513Z,92.48
2022-11-28T21:34:19.183Z,92.49
2022-11-28T21:36:46.134Z,92.43
2022-11-28T21:39:15.815Z,92.24
2022-11-28T21:41:43.053Z,92.44
2022-11-28T21:44:10.411Z,92.40
2022-11-28T21:46:37.182Z,92.75
2022-11-28T21:49:04.336Z,93.22
2022-11-28T21:51:30.964Z,93.19
2022-11-28T21:53:57.847Z,92.55
2022-11-28T21:56:25.046Z,92.81
2022-11-28T21:58:51.846Z,92.71
2022-11-28T22:01:20.252Z,92.40
2022-11-28T22:03:47.113Z,92.61
2022-11-28T22:06:22.340Z,92.46
2022-11-28T22:08:49.649Z,92.81
2022-11-28T22:11:16.729Z,92.37
2022-11-28T22:13:45.812Z,92.69
2022-11-28T22:16:19.961Z,92.34
2022-11-28T22:18:48.207Z,92.38
2022-11-28T22:24:05.417Z,92.60
2022-11-28T22:26:32.169Z,92.77
2022-11-28T22:28:59.012Z,92.71
2022-11-28T22:31:25.824Z,92.49
2022-11-28T22:33:53.150Z,92.56
2022-11-28T22:36:20.932Z,92.37
2022-11-28T22:38:48.817Z,92.72
2022-11-28T22:41:24.662Z,92.97
2022-11-28T22:43:55.917Z,93.15
2022-11-28T22:46:22.799Z,93.04
2022-11-28T22:48:50.507Z,92.96
2022-11-28T22:51:21.807Z,93.03
2022-11-28T22:53:53.356Z,93.30
2022-11-28T22:56:19.918Z,92.99
2022-11-28T22:58:46.617Z,93.00
2022-11-28T23:01:18.838Z,92.75
2022-11-28T23:03:46.508Z,92.93
2022-11-28T23:06:24.951Z,93.00
2022-11-28T23:08:51.720Z,92.89
2022-11-28T23:11:21.745Z,92.56
2022-11-28T23:13:49.368Z,92.64
2022-11-28T23:16:23.775Z,93.10
2022-11-28T23:18:53.383Z,93.04
2022-11-28T23:21:21.157Z,92.91
2022-11-28T23:23:48.062Z,92.88
2022-11-28T23:26:18.257Z,93.15
2022-11-28T23:28:45.459Z,93.65
2022-11-28T23:31:23.999Z,93.47
2022-11-28T23:33:51.811Z,93.53
2022-11-28T23:36:19.835Z,93.85
2022-11-28T23:38:47.866Z,93.89
2022-11-28T23:41:14.768Z,93.59
2022-11-28T23:43:41.840Z,93.91
2022-11-28T23:46:10.199Z,94.10
2022-11-28T23:48:37.323Z,94.28
2022-11-28T23:51:06.306Z,94.46
2022-11-28T23:53:36.689Z,94.63
2022-11-28T23:56:10.597Z,93.91
2022-11-28T23:58:37.339Z,94.11
